createdAt,value
2018-04-01T00:00:17.222Z,18.03
2018-04-01T00:02:44.359Z,21.53
2018-04-01T00:05:12.712Z,24.27
2018-04-01T00:07:41.001Z,23.50
2018-04-01T00:10:08.033Z,24.17
2018-04-01T00:12:35.848Z,22.33
2018-04-01T00:15:02.899Z,24.10
2018-04-01T00:17:29.938Z,21.90
2018-04-01T00:19:57.079Z,22.83
2018-04-01T00:22:26.286Z,20.07
2018-04-01T00:24:53.706Z,20.23
2018-04-01T00:27:21.519Z,20.93
2018-04-01T00:29:49.387Z,20.33
2018-04-01T00:32:16.424Z,19.30
2018-04-01T00:34:43.488Z,19.53
2018-04-01T00:37:10.624Z,18.57
2018-04-01T00:39:37.666Z,18.70
2018-04-01T00:42:04.832Z,18.13
2018-04-01T00:44:32.270Z,16.53
2018-04-01T00:46:59.334Z,16.63
2018-04-01T00:49:26.398Z,15.93
2018-04-01T00:51:53.442Z,15.20
2018-04-01T00:54:20.482Z,14.17
2018-04-01T00:56:47.540Z,13.37
2018-04-01T00:59:14.573Z,14.90
2018-04-01T01:01:41.610Z,12.83
2018-04-01T01:04:09.150Z,11.93
2018-04-01T01:06:37.052Z,12.83
2018-04-01T01:09:04.199Z,11.80
2018-04-01T01:11:31.254Z,14.23
2018-04-01T01:13:58.306Z,12.87
2018-04-01T01:16:25.462Z,15.27
2018-04-01T01:18:52.526Z,12.03
2018-04-01T01:21:19.587Z,12.37
2018-04-01T01:23:46.634Z,11.63
2018-04-01T01:26:13.682Z,11.33
2018-04-01T01:28:40.716Z,11.30
2018-04-01T01:31:07.801Z,11.67
2018-04-01T01:33:34.856Z,11.47
2018-04-01T01:36:02.776Z,11.33
2018-04-01T01:38:29.821Z,12.00
2018-04-01T01:40:56.984Z,12.27
2018-04-01T01:43:24.027Z,11.33
2018-04-01T01:45:51.089Z,11.40
2018-04-01T01:48:18.216Z,12.30
2018-04-01T01:50:45.244Z,11.87
2018-04-01T01:53:12.291Z,12.10
2018-04-01T01:55:39.334Z,12.87
2018-04-01T01:58:07.134Z,12.90
2018-04-01T02:00:34.244Z,15.20
2018-04-01T02:03:02.079Z,14.73
2018-04-01T02:05:29.119Z,14.80
2018-04-01T02:07:58.185Z,13.87
2018-04-01T02:10:26.061Z,15.00
2018-04-01T02:12:53.093Z,15.83
2018-04-01T02:15:21.586Z,17.43
2018-04-01T02:17:48.640Z,15.23
2018-04-01T02:20:15.681Z,18.20
2018-04-01T02:22:42.738Z,17.77
2018-04-01T02:25:09.793Z,14.63
2018-04-01T02:27:36.833Z,18.97
2018-04-01T02:30:03.902Z,16.23
2018-04-01T02:32:31.687Z,16.03
2018-04-01T02:35:00.002Z,15.63
2018-04-01T02:37:27.076Z,16.80
2018-04-01T02:39:54.135Z,15.70
2018-04-01T02:42:22.471Z,15.97
2018-04-01T02:44:51.154Z,16.13
2018-04-01T02:47:18.982Z,15.90
2018-04-01T02:49:46.058Z,19.17
2018-04-01T02:52:13.880Z,19.80
2018-04-01T02:54:41.538Z,16.87
2018-04-01T02:57:08.584Z,18.50
2018-04-01T02:59:36.542Z,19.50
2018-04-01T03:02:03.607Z,16.83
2018-04-01T03:04:30.664Z,21.70
2018-04-01T03:06:57.715Z,22.43
2018-04-01T03:09:24.824Z,25.60
2018-04-01T03:11:53.524Z,20.90
2018-04-01T03:14:20.571Z,27.87
2018-04-01T03:16:47.749Z,29.40
2018-04-01T03:19:14.795Z,26.10
2018-04-01T03:21:41.949Z,28.53
2018-04-01T03:24:09.005Z,32.30
2018-04-01T03:26:36.143Z,27.73
2018-04-01T03:29:03.291Z,26.57
2018-04-01T03:31:30.346Z,27.27
2018-04-01T03:33:57.500Z,32.40
2018-04-01T03:36:24.535Z,29.47
2018-04-01T03:38:51.709Z,28.93
2018-04-01T03:41:18.733Z,27.57
2018-04-01T03:43:47.443Z,28.00
2018-04-01T03:46:15.308Z,27.57
2018-04-01T03:48:42.445Z,30.30
2018-04-01T03:51:11.795Z,24.80
2018-04-01T03:53:38.907Z,21.10
2018-04-01T03:56:05.948Z,22.70
2018-04-01T03:58:33.101Z,21.47
2018-04-01T04:01:00.153Z,19.73
2018-04-01T04:03:27.195Z,19.40
2018-04-01T04:05:54.229Z,17.70
2018-04-01T04:08:21.262Z,17.33
2018-04-01T04:10:49.563Z,20.90
2018-04-01T04:13:17.437Z,17.13
2018-04-01T04:15:44.548Z,17.27
2018-04-01T04:18:11.636Z,19.97
2018-04-01T04:20:38.682Z,20.20
2018-04-01T04:23:05.740Z,18.53
2018-04-01T04:25:34.055Z,23.40
2018-04-01T04:28:01.928Z,22.33
2018-04-01T04:30:28.986Z,23.03
2018-04-01T04:32:56.088Z,18.37
2018-04-01T04:35:23.934Z,19.53
2018-04-01T04:37:52.098Z,22.00
2018-04-01T04:40:19.901Z,22.53
2018-04-01T04:42:46.969Z,21.37
2018-04-01T04:45:14.026Z,22.40
2018-04-01T04:47:41.058Z,22.00
2018-04-01T04:50:08.090Z,26.67
2018-04-01T04:52:35.762Z,26.57
2018-04-01T04:55:03.407Z,29.73
2018-04-01T04:57:33.228Z,31.07
2018-04-01T05:00:00.282Z,33.03
2018-04-01T05:02:27.920Z,31.93
2018-04-01T05:04:54.953Z,28.63
2018-04-01T05:07:24.393Z,27.20
2018-04-01T05:09:51.450Z,30.83
2018-04-01T05:12:18.482Z,33.47
2018-04-01T05:14:45.520Z,36.37
2018-04-01T05:17:12.562Z,34.07
2018-04-01T05:19:40.369Z,34.03
2018-04-01T05:22:07.505Z,32.30
2018-04-01T05:24:34.570Z,35.87
2018-04-01T05:27:02.423Z,34.40
2018-04-01T05:29:30.125Z,31.60
2018-04-01T05:31:57.240Z,30.57
2018-04-01T05:34:24.289Z,31.07
2018-04-01T05:36:55.648Z,33.37
2018-04-01T05:39:23.209Z,32.23
2018-04-01T05:41:50.348Z,28.07
2018-04-01T05:44:17.415Z,29.87
2018-04-01T05:46:44.455Z,33.73
2018-04-01T05:49:12.623Z,30.60
2018-04-01T05:51:39.667Z,31.33
2018-04-01T05:54:06.707Z,30.63
2018-04-01T05:56:33.743Z,31.27
2018-04-01T05:59:00.787Z,31.50
2018-04-01T06:01:28.754Z,33.77
2018-04-01T06:03:56.656Z,34.17
2018-04-01T06:06:23.801Z,34.60
2018-04-01T06:08:50.833Z,33.70
2018-04-01T06:11:17.872Z,41.17
2018-04-01T06:13:45.678Z,38.73
2018-04-01T06:16:12.713Z,38.57
2018-04-01T06:18:39.757Z,39.33
2018-04-01T06:21:07.642Z,43.63
2018-04-01T06:23:34.688Z,42.27
2018-04-01T06:26:01.841Z,39.33
2018-04-01T06:28:30.109Z,42.77
2018-04-01T06:30:58.182Z,41.13
2018-04-01T06:33:26.126Z,49.27
2018-04-01T06:35:53.941Z,42.63
2018-04-01T06:38:20.978Z,44.53
2018-04-01T06:40:48.020Z,46.90
2018-04-01T06:43:15.064Z,46.70
2018-04-01T06:45:43.684Z,45.90
2018-04-01T06:48:12.238Z,47.63
2018-04-01T06:50:39.304Z,46.30
2018-04-01T06:53:06.379Z,45.57
2018-04-01T06:55:33.421Z,47.40
2018-04-01T06:58:00.498Z,49.00
2018-04-01T07:00:28.412Z,44.80
2018-04-01T07:02:55.548Z,47.93
2018-04-01T07:05:22.614Z,43.47
2018-04-01T07:07:49.648Z,46.70
2018-04-01T07:10:17.935Z,41.90
2018-04-01T07:12:46.253Z,40.73
2018-04-01T07:15:14.336Z,40.73
2018-04-01T07:17:42.138Z,40.37
2018-04-01T07:20:09.184Z,37.53
2018-04-01T07:22:36.225Z,35.50
2018-04-01T07:25:03.269Z,32.93
2018-04-01T07:27:30.360Z,33.97
2018-04-01T07:29:57.642Z,30.53
2018-04-01T07:32:24.684Z,30.30
2018-04-01T07:34:52.605Z,27.27
2018-04-01T07:37:19.659Z,27.63
2018-04-01T07:39:46.715Z,27.13
2018-04-01T07:42:13.753Z,24.87
2018-04-01T07:44:40.800Z,25.57
2018-04-01T07:47:09.042Z,24.93
2018-04-01T07:49:37.860Z,25.67
2018-04-01T07:52:04.917Z,26.73
2018-04-01T07:54:33.390Z,24.40
2018-04-01T07:57:00.457Z,22.83
2018-04-01T07:59:27.486Z,21.80
2018-04-01T08:01:54.530Z,21.63
2018-04-01T08:04:22.419Z,21.30
2018-04-01T08:06:49.570Z,22.50
2018-04-01T08:09:16.607Z,20.10
2018-04-01T08:11:43.668Z,20.13
2018-04-01T08:14:10.716Z,20.60
2018-04-01T08:16:37.752Z,19.50
2018-04-01T08:19:04.830Z,21.07
2018-04-01T08:21:31.872Z,19.63
2018-04-01T08:23:59.003Z,19.30
2018-04-01T08:26:28.104Z,21.37
2018-04-01T08:28:56.100Z,21.30
2018-04-01T08:31:24.423Z,21.03
2018-04-01T08:33:51.500Z,22.20
2018-04-01T08:36:18.663Z,20.93
2018-04-01T08:38:45.697Z,22.60
2018-04-01T08:41:14.271Z,22.60
2018-04-01T08:43:41.306Z,23.57
2018-04-01T08:46:09.106Z,25.00
2018-04-01T08:48:36.255Z,26.93
2018-04-01T08:51:03.322Z,24.27
2018-04-01T08:53:30.687Z,26.17
2018-04-01T08:55:57.725Z,25.97
2018-04-01T08:58:24.858Z,27.23
2018-04-01T09:00:51.911Z,26.10
2018-04-01T09:03:20.270Z,24.53
2018-04-01T09:05:47.321Z,28.73
2018-04-01T09:08:14.389Z,25.43
2018-04-01T09:10:41.448Z,24.47
2018-04-01T09:13:08.488Z,28.97
2018-04-01T09:15:35.532Z,30.67
2018-04-01T09:18:02.583Z,27.73
2018-04-01T09:20:29.645Z,26.70
2018-04-01T09:22:56.681Z,29.13
2018-04-01T09:25:24.825Z,29.37
2018-04-01T09:27:52.635Z,29.37
2018-04-01T09:30:19.775Z,32.20
2018-04-01T09:32:47.784Z,33.23
2018-04-01T09:35:14.858Z,39.73
2018-04-01T09:37:44.203Z,38.27
2018-04-01T09:40:11.256Z,44.27
2018-04-01T09:42:38.314Z,43.77
2018-04-01T09:45:05.515Z,45.17
2018-04-01T09:47:32.532Z,44.27
2018-04-01T09:49:59.580Z,44.83
2018-04-01T09:52:26.694Z,43.87
2018-04-01T09:54:54.564Z,48.20
2018-04-01T09:57:21.594Z,43.87
2018-04-01T09:59:48.636Z,42.93
2018-04-01T10:02:16.928Z,43.60
2018-04-01T10:04:45.015Z,45.80
2018-04-01T10:07:12.551Z,44.63
2018-04-01T10:09:40.095Z,50.67
2018-04-01T10:12:08.692Z,47.30
2018-04-01T10:14:38.440Z,50.13
2018-04-01T10:17:05.968Z,49.87
2018-04-01T10:19:34.260Z,54.27
2018-04-01T10:22:01.788Z,53.23
2018-04-01T10:24:30.098Z,56.70
2018-04-01T10:26:57.680Z,59.50
2018-04-01T10:29:25.229Z,60.33
2018-04-01T10:31:55.676Z,59.27
2018-04-01T10:34:24.550Z,59.23
2018-04-01T10:36:52.379Z,63.87
2018-04-01T10:39:21.360Z,56.83
2018-04-01T10:41:50.395Z,65.87
2018-04-01T10:44:18.480Z,62.90
2018-04-01T10:46:46.022Z,66.27
2018-04-01T10:49:13.546Z,62.53
2018-04-01T10:51:41.614Z,61.87
2018-04-01T10:54:08.725Z,64.27
2018-04-01T10:56:35.863Z,65.80
2018-04-01T10:59:02.908Z,58.40
2018-04-01T11:01:29.949Z,62.53
2018-04-01T11:03:57.755Z,58.50
2018-04-01T11:06:24.891Z,60.23
2018-04-01T11:08:51.951Z,56.70
2018-04-01T11:11:19.095Z,53.43
2018-04-01T11:13:46.238Z,54.57
2018-04-01T11:16:13.390Z,53.87
2018-04-01T11:18:40.427Z,50.30
2018-04-01T11:21:07.464Z,51.90
2018-04-01T11:23:35.311Z,49.90
2018-04-01T11:26:02.405Z,51.37
2018-04-01T11:28:30.270Z,47.10
2018-04-01T11:30:57.421Z,44.03
2018-04-01T11:33:24.470Z,47.50
2018-04-01T11:35:51.499Z,50.57
2018-04-01T11:38:18.783Z,47.13
2018-04-01T11:40:45.932Z,42.40
2018-04-01T11:43:12.975Z,45.83
2018-04-01T11:45:40.123Z,55.40
2018-04-01T11:48:07.157Z,43.17
2018-04-01T11:50:34.201Z,58.90
2018-04-01T11:53:01.293Z,52.60
2018-04-01T11:55:28.336Z,57.03
2018-04-01T11:57:55.379Z,56.73
2018-04-01T12:00:22.436Z,58.67
2018-04-01T12:02:49.476Z,59.87
2018-04-01T12:05:16.551Z,61.50
2018-04-01T12:07:43.654Z,62.97
2018-04-01T12:10:10.687Z,64.67
2018-04-01T12:12:38.496Z,65.97
2018-04-01T12:15:05.543Z,60.97
2018-04-01T12:17:32.590Z,63.93
2018-04-01T12:19:59.670Z,60.80
2018-04-01T12:22:26.690Z,58.00
2018-04-01T12:24:53.827Z,53.23
2018-04-01T12:27:20.854Z,55.50
2018-04-01T12:29:48.673Z,47.17
2018-04-01T12:32:15.715Z,51.60
2018-04-01T12:34:42.753Z,47.73
2018-04-01T12:37:09.816Z,44.50
2018-04-01T12:39:37.732Z,36.43
2018-04-01T12:42:05.542Z,39.53
2018-04-01T12:44:32.676Z,40.83
2018-04-01T12:47:00.155Z,42.63
2018-04-01T12:49:27.614Z,40.33
2018-04-01T12:51:55.859Z,39.17
2018-04-01T12:54:24.450Z,37.00
2018-04-01T12:56:52.332Z,42.03
2018-04-01T12:59:19.476Z,40.53
2018-04-01T13:01:46.618Z,43.43
2018-04-01T13:04:13.684Z,45.43
2018-04-01T13:06:40.838Z,44.50
2018-04-01T13:09:07.956Z,52.40
2018-04-01T13:11:35.036Z,57.80
2018-04-01T13:14:03.098Z,52.87
2018-04-01T13:16:30.139Z,60.97
2018-04-01T13:18:57.294Z,61.27
2018-04-01T13:21:24.450Z,60.70
2018-04-01T13:23:54.687Z,59.43
2018-04-01T13:26:21.828Z,70.43
2018-04-01T13:28:48.888Z,57.60
2018-04-01T13:31:15.928Z,69.17
2018-04-01T13:33:44.502Z,74.13
2018-04-01T13:36:11.655Z,80.83
2018-04-01T13:38:38.696Z,84.07
2018-04-01T13:41:05.761Z,85.80
2018-04-01T13:43:32.830Z,77.30
2018-04-01T13:46:00.058Z,72.77
2018-04-01T13:48:27.092Z,87.13
2018-04-01T13:50:54.138Z,79.67
2018-04-01T13:53:21.208Z,79.13
2018-04-01T13:55:49.255Z,82.03
2018-04-01T13:58:16.309Z,87.23
2018-04-01T14:00:44.584Z,90.27
2018-04-01T14:03:11.658Z,88.70
2018-04-01T14:05:38.718Z,80.80
2018-04-01T14:08:05.750Z,75.40
2018-04-01T14:10:32.796Z,83.87
2018-04-01T14:12:59.851Z,86.23
2018-04-01T14:15:26.899Z,78.80
2018-04-01T14:17:53.950Z,71.07
2018-04-01T14:20:21.005Z,86.93
2018-04-01T14:22:48.041Z,92.93
2018-04-01T14:25:15.952Z,92.27
2018-04-01T14:27:43.063Z,87.67
2018-04-01T14:30:10.112Z,90.77
2018-04-01T14:32:37.158Z,84.83
2018-04-01T14:35:04.320Z,91.13
2018-04-01T14:37:31.475Z,86.33
2018-04-01T14:39:58.514Z,87.00
2018-04-01T14:42:25.565Z,81.37
2018-04-01T14:44:53.530Z,85.93
2018-04-01T14:47:20.573Z,85.10
2018-04-01T14:49:47.631Z,67.57
2018-04-01T14:52:14.671Z,76.13
2018-04-01T14:54:41.704Z,65.87
2018-04-01T14:57:08.793Z,73.27
2018-04-01T14:59:35.930Z,57.03
2018-04-01T15:02:03.081Z,47.23
2018-04-01T15:04:31.043Z,48.40
2018-04-01T15:06:58.095Z,38.07
2018-04-01T15:09:25.160Z,31.13
2018-04-01T15:11:52.212Z,35.70
2018-04-01T15:14:19.260Z,41.30
2018-04-01T15:16:46.393Z,33.30
2018-04-01T15:19:13.460Z,28.80
2018-04-01T15:21:40.503Z,31.97
2018-04-01T15:24:07.652Z,27.57
2018-04-01T15:26:34.740Z,21.73
2018-04-01T15:29:01.778Z,23.40
2018-04-01T15:31:28.831Z,28.83
2018-04-01T15:33:55.887Z,26.73
2018-04-01T15:36:22.915Z,23.60
2018-04-01T15:38:49.955Z,24.70
2018-04-01T15:41:17.589Z,24.97
2018-04-01T15:43:44.639Z,21.07
2018-04-01T15:46:11.710Z,24.50
2018-04-01T15:48:39.672Z,22.33
2018-04-01T15:51:06.779Z,23.17
2018-04-01T15:53:34.893Z,21.37
2018-04-01T15:56:02.973Z,17.23
2018-04-01T15:58:31.390Z,19.93
2018-04-01T16:00:58.501Z,16.97
2018-04-01T16:03:25.546Z,20.63
2018-04-01T16:05:52.590Z,23.20
2018-04-01T16:08:20.054Z,21.97
2018-04-01T16:10:47.210Z,24.57
2018-04-01T16:13:14.356Z,23.73
2018-04-01T16:15:41.407Z,24.33
2018-04-01T16:18:08.578Z,25.87
2018-04-01T16:20:35.616Z,30.50
2018-04-01T16:23:02.670Z,22.47
2018-04-01T16:25:29.718Z,20.10
2018-04-01T16:27:56.748Z,22.50
2018-04-01T16:30:24.902Z,24.07
2018-04-01T16:32:52.706Z,22.67
2018-04-01T16:35:19.750Z,20.60
2018-04-01T16:37:46.993Z,18.40
2018-04-01T16:40:14.041Z,16.57
2018-04-01T16:42:41.078Z,19.60
2018-04-01T16:45:08.118Z,15.00
2018-04-01T16:47:35.174Z,18.40
2018-04-01T16:50:02.752Z,19.13
2018-04-01T16:52:29.800Z,18.47
2018-04-01T16:54:57.910Z,17.03
2018-04-01T16:57:24.946Z,19.77
2018-04-01T16:59:53.294Z,19.57
2018-04-01T17:02:21.182Z,21.37
2018-04-01T17:04:48.219Z,18.27
2018-04-01T17:07:15.286Z,18.07
2018-04-01T17:09:42.477Z,18.60
2018-04-01T17:12:09.466Z,14.03
2018-04-01T17:14:36.511Z,20.00
2018-04-01T17:17:03.562Z,24.63
2018-04-01T17:19:30.595Z,17.30
2018-04-01T17:21:57.635Z,27.33
2018-04-01T17:24:24.696Z,20.57
2018-04-01T17:26:51.736Z,23.27
2018-04-01T17:29:19.577Z,22.67
2018-04-01T17:31:47.407Z,19.43
2018-04-01T17:34:14.440Z,19.70
2018-04-01T17:36:41.808Z,19.37
2018-04-01T17:39:08.858Z,20.87
2018-04-01T17:41:35.905Z,22.00
2018-04-01T17:44:03.041Z,22.33
2018-04-01T17:46:30.090Z,23.93
2018-04-01T17:48:57.139Z,22.30
2018-04-01T17:51:24.295Z,23.67
2018-04-01T17:53:51.340Z,19.47
2018-04-01T17:56:18.391Z,21.97
2018-04-01T17:58:46.667Z,21.93
2018-04-01T18:01:13.713Z,22.47
2018-04-01T18:03:40.824Z,23.53
2018-04-01T18:06:07.831Z,21.63
2018-04-01T18:08:34.887Z,21.57
2018-04-01T18:11:01.940Z,25.63
2018-04-01T18:13:29.058Z,20.47
2018-04-01T18:15:57.192Z,24.80
2018-04-01T18:18:25.103Z,24.77
2018-04-01T18:20:52.132Z,26.10
2018-04-01T18:23:19.200Z,32.40
2018-04-01T18:25:46.270Z,26.90
2018-04-01T18:28:13.325Z,29.10
2018-04-01T18:30:40.375Z,28.33
2018-04-01T18:33:08.259Z,27.30
2018-04-01T18:35:35.368Z,30.03
2018-04-01T18:38:02.404Z,30.53
2018-04-01T18:40:29.447Z,40.07
2018-04-01T18:42:57.933Z,31.80
2018-04-01T18:45:25.920Z,27.37
2018-04-01T18:47:52.958Z,26.23
2018-04-01T18:50:20.048Z,29.33
2018-04-01T18:52:47.114Z,24.77
2018-04-01T18:55:14.941Z,29.30
2018-04-01T18:57:42.082Z,24.90
2018-04-01T19:00:09.119Z,26.87
2018-04-01T19:02:36.160Z,26.47
2018-04-01T19:05:03.207Z,25.93
2018-04-01T19:07:30.260Z,24.73
2018-04-01T19:09:57.290Z,27.47
2018-04-01T19:12:25.105Z,28.47
2018-04-01T19:14:52.156Z,25.27
2018-04-01T19:17:19.676Z,26.50
2018-04-01T19:19:47.198Z,28.37
2018-04-01T19:22:14.739Z,28.20
2018-04-01T19:24:42.271Z,28.57
2018-04-01T19:27:09.849Z,25.80
2018-04-01T19:29:37.382Z,27.37
2018-04-01T19:32:06.337Z,28.90
2018-04-01T19:34:34.656Z,25.63
2018-04-01T19:37:02.196Z,30.33
2018-04-01T19:39:30.501Z,28.20
2018-04-01T19:41:58.974Z,28.20
2018-04-01T19:44:26.524Z,33.77
2018-04-01T19:46:54.818Z,31.47
2018-04-01T19:49:22.339Z,32.73
2018-04-01T19:51:50.653Z,30.93
2018-04-01T19:54:18.235Z,27.63
2018-04-01T19:56:45.756Z,30.83
2018-04-01T19:59:13.326Z,30.47
2018-04-01T20:01:40.907Z,30.73
2018-04-01T20:04:08.459Z,28.73
2018-04-01T20:06:36.008Z,29.83
2018-04-01T20:09:03.537Z,28.43
2018-04-01T20:11:31.855Z,29.47
2018-04-01T20:13:59.421Z,27.57
2018-04-01T20:16:26.980Z,23.67
2018-04-01T20:18:54.511Z,29.83
2018-04-01T20:21:22.916Z,29.30
2018-04-01T20:23:50.451Z,26.90
2018-04-01T20:26:18.737Z,27.73
2018-04-01T20:28:46.734Z,26.13
2018-04-01T20:31:15.594Z,27.73
2018-04-01T20:33:43.887Z,31.07
2018-04-01T20:36:11.464Z,29.13
2018-04-01T20:38:38.989Z,30.40
2018-04-01T20:41:07.303Z,30.80
2018-04-01T20:43:35.073Z,33.87
2018-04-01T20:46:02.596Z,31.13
2018-04-01T20:48:30.886Z,28.43
2018-04-01T20:50:58.428Z,27.93
2018-04-01T20:53:26.730Z,30.13
2018-04-01T20:55:54.975Z,28.23
2018-04-01T20:58:23.298Z,29.30
2018-04-01T21:00:50.839Z,26.43
2018-04-01T21:03:18.359Z,28.80
2018-04-01T21:05:45.982Z,30.60
2018-04-01T21:08:13.507Z,29.30
2018-04-01T21:10:41.800Z,26.97
2018-04-01T21:13:09.364Z,26.10
2018-04-01T21:15:37.036Z,28.60
2018-04-01T21:18:06.343Z,28.17
2018-04-01T21:20:33.875Z,25.13
2018-04-01T21:23:02.166Z,26.83
2018-04-01T21:25:29.745Z,29.70
2018-04-01T21:27:58.602Z,29.97
2018-04-01T21:30:26.909Z,28.93
2018-04-01T21:32:54.451Z,26.57
2018-04-01T21:35:21.987Z,28.27
2018-04-01T21:37:49.598Z,31.20
2018-04-01T21:40:17.927Z,30.13
2018-04-01T21:42:48.397Z,32.57
2018-04-01T21:45:16.096Z,31.00
2018-04-01T21:47:43.629Z,31.40
2018-04-01T21:50:11.165Z,36.13
2018-04-01T21:52:38.744Z,29.17
2018-04-01T21:55:06.267Z,32.73
2018-04-01T21:57:34.574Z,32.03
2018-04-01T22:00:02.101Z,29.10
2018-04-01T22:02:30.391Z,33.37
2018-04-01T22:04:58.695Z,31.00
2018-04-01T22:07:26.236Z,34.17
2018-04-01T22:09:55.502Z,32.27
2018-04-01T22:12:24.056Z,32.43
2018-04-01T22:14:51.593Z,34.20
2018-04-01T22:17:19.179Z,33.13
2018-04-01T22:19:46.743Z,34.40
2018-04-01T22:22:14.293Z,33.10
2018-04-01T22:24:41.818Z,36.80
2018-04-01T22:27:10.113Z,36.07
2018-04-01T22:29:37.648Z,31.20
2018-04-01T22:32:05.192Z,33.27
2018-04-01T22:34:33.425Z,33.07
2018-04-01T22:37:00.958Z,34.50
2018-04-01T22:39:29.260Z,33.57
2018-04-01T22:41:56.794Z,34.03
2018-04-01T22:44:25.100Z,29.90
2018-04-01T22:46:52.639Z,37.90
2018-04-01T22:49:20.220Z,34.10
2018-04-01T22:51:47.744Z,33.70
2018-04-01T22:54:16.049Z,36.53
2018-04-01T22:56:45.105Z,31.67
2018-04-01T22:59:13.405Z,33.70
2018-04-01T23:01:42.402Z,33.37
2018-04-01T23:04:10.696Z,35.83
2018-04-01T23:06:38.227Z,32.63
2018-04-01T23:09:06.536Z,34.53
2018-04-01T23:11:34.112Z,35.60
2018-04-01T23:14:02.891Z,31.83
2018-04-01T23:16:31.248Z,39.53
2018-04-01T23:19:00.034Z,38.90
2018-04-01T23:21:28.327Z,34.27
2018-04-01T23:23:55.845Z,34.73
2018-04-01T23:26:23.393Z,33.50
2018-04-01T23:28:51.126Z,31.60
2018-04-01T23:31:18.642Z,34.13
2018-04-01T23:33:47.665Z,35.47
2018-04-01T23:36:15.249Z,34.93
2018-04-01T23:38:42.790Z,33.20
2018-04-01T23:41:10.335Z,35.50
2018-04-01T23:43:38.643Z,36.70
2018-04-01T23:46:06.171Z,35.33
2018-04-01T23:48:34.628Z,34.90
2018-04-01T23:51:02.139Z,31.07
2018-04-01T23:53:29.670Z,34.67
2018-04-01T23:55:58.082Z,33.83
2018-04-01T23:58:25.605Z,34.23
